createdAt,value
2022-09-28T00:00:56.226Z,98761.34
2022-09-28T00:03:23.959Z,98761.91
2022-09-28T00:05:51.656Z,98760.91
2022-09-28T00:08:19.350Z,98760.31
2022-09-28T00:10:55.786Z,98761.38
2022-09-28T00:13:24.561Z,98769.06
2022-09-28T00:16:02.219Z,98758.31
2022-09-28T00:18:30.010Z,98745.78
2022-09-28T00:21:01.867Z,98762.06
2022-09-28T00:23:29.610Z,98759.38
2022-09-28T00:25:57.289Z,98763.72
2022-09-28T00:28:24.986Z,98764.31
2022-09-28T00:30:56.432Z,98761.69
2022-09-28T00:33:25.908Z,98755.75
2022-09-28T00:35:57.901Z,98759.63
2022-09-28T00:38:28.658Z,98757.00
2022-09-28T00:40:56.730Z,98755.94
2022-09-28T00:43:25.363Z,98751.28
2022-09-28T00:45:59.824Z,98748.47
2022-09-28T00:48:32.509Z,98746.88
2022-09-28T00:51:05.100Z,98745.19
2022-09-28T00:53:36.484Z,98747.00
2022-09-28T00:56:09.162Z,98743.19
2022-09-28T00:58:42.884Z,98745.84
2022-09-28T01:01:11.961Z,98735.50
2022-09-28T01:03:45.266Z,98735.63
2022-09-28T01:06:18.988Z,98736.63
2022-09-28T01:08:47.997Z,98740.22
2022-09-28T01:11:15.782Z,98729.00
2022-09-28T01:13:44.832Z,98725.38
2022-09-28T01:16:23.387Z,98725.81
2022-09-28T01:19:02.481Z,98733.28
2022-09-28T01:21:41.931Z,98729.00
2022-09-28T01:24:20.172Z,98714.84
2022-09-28T01:27:14.440Z,98733.25
2022-09-28T01:29:53.760Z,98733.97
2022-09-28T01:32:33.480Z,98732.50
2022-09-28T01:35:08.873Z,98732.25
2022-09-28T01:37:43.031Z,98731.69
2022-09-28T01:40:13.203Z,98736.63
2022-09-28T01:42:46.421Z,98727.59
2022-09-28T01:45:22.995Z,98731.69
2022-09-28T01:47:55.367Z,98717.41
2022-09-28T01:50:27.331Z,98733.63
2022-09-28T01:53:00.366Z,98728.84
2022-09-28T01:55:32.639Z,98714.56
2022-09-28T01:58:09.826Z,98728.63
2022-09-28T02:00:42.072Z,98729.44
2022-09-28T02:03:16.717Z,98721.13
2022-09-28T02:05:52.650Z,98721.09
2022-09-28T02:08:26.831Z,98723.59
2022-09-28T02:10:58.857Z,98726.88
2022-09-28T02:13:34.070Z,98719.78
2022-09-28T02:16:06.657Z,98722.31
2022-09-28T02:18:35.008Z,98727.72
2022-09-28T02:21:10.904Z,98720.63
2022-09-28T02:23:43.202Z,98725.75
2022-09-28T02:26:15.017Z,98731.69
2022-09-28T02:28:44.175Z,98724.41
2022-09-28T02:31:12.022Z,98727.13
2022-09-28T02:33:44.611Z,98715.22
2022-09-28T02:36:12.723Z,98723.78
2022-09-28T02:38:40.498Z,98728.88
2022-09-28T02:41:17.683Z,98732.34
2022-09-28T02:43:54.202Z,98728.41
2022-09-28T02:46:30.712Z,98730.06
2022-09-28T02:49:22.237Z,98729.34
2022-09-28T02:52:10.372Z,98729.41
2022-09-28T02:54:54.965Z,98735.97
2022-09-28T02:57:35.095Z,98729.41
2022-09-28T03:00:08.652Z,98730.78
2022-09-28T03:02:47.180Z,98734.06
2022-09-28T03:05:19.776Z,98725.84
2022-09-28T03:07:55.835Z,98726.31
2022-09-28T03:10:29.195Z,98730.94
2022-09-28T03:12:58.013Z,98728.41
2022-09-28T03:15:30.090Z,98736.97
2022-09-28T03:17:58.039Z,98727.97
2022-09-28T03:20:26.883Z,98727.59
2022-09-28T03:23:12.844Z,98728.78
2022-09-28T03:25:42.703Z,98728.56
2022-09-28T03:28:10.423Z,98740.25
2022-09-28T03:30:43.028Z,98735.81
2022-09-28T03:33:10.933Z,98729.06
2022-09-28T03:35:39.481Z,98734.97
2022-09-28T03:38:07.270Z,98730.34
2022-09-28T03:40:38.781Z,98734.97
2022-09-28T03:43:06.683Z,98732.00
2022-09-28T03:45:34.628Z,98729.66
2022-09-28T03:48:04.182Z,98730.66
2022-09-28T03:50:35.083Z,98737.56
2022-09-28T03:53:04.380Z,98735.94
2022-09-28T03:55:32.266Z,98733.97
2022-09-28T03:58:00.272Z,98729.78
2022-09-28T04:00:28.059Z,98727.59
2022-09-28T04:02:59.112Z,98733.00
2022-09-28T04:05:28.335Z,98732.63
2022-09-28T04:07:58.160Z,98733.00
2022-09-28T04:10:26.648Z,98736.63
2022-09-28T04:12:55.999Z,98731.16
2022-09-28T04:15:24.329Z,98740.25
2022-09-28T04:17:54.584Z,98742.56
2022-09-28T04:20:46.064Z,98740.75
2022-09-28T04:23:14.689Z,98733.25
2022-09-28T04:25:45.751Z,98728.41
2022-09-28T04:28:30.890Z,98735.31
2022-09-28T04:30:59.272Z,98736.09
2022-09-28T04:33:27.031Z,98744.88
2022-09-28T04:35:56.431Z,98742.16
2022-09-28T04:38:48.454Z,98732.84
2022-09-28T04:41:12.565Z,98731.69
2022-09-28T04:43:40.980Z,98737.44
2022-09-28T04:46:08.914Z,98739.25
2022-09-28T04:48:43.716Z,98732.16
2022-09-28T04:51:27.092Z,98741.56
2022-09-28T04:53:56.200Z,98742.22
2022-09-28T04:56:24.279Z,98734.28
2022-09-28T04:58:52.938Z,98745.53
2022-09-28T05:01:23.610Z,98740.56
2022-09-28T05:04:00.873Z,98735.31
2022-09-28T05:06:49.062Z,98749.19
2022-09-28T05:09:16.888Z,98737.31
2022-09-28T05:11:44.766Z,98742.56
2022-09-28T05:14:17.582Z,98740.75
2022-09-28T05:16:45.884Z,98746.19
2022-09-28T05:19:36.930Z,98744.53
2022-09-28T05:22:11.339Z,98748.47
2022-09-28T05:24:42.739Z,98751.47
2022-09-28T05:27:10.771Z,98748.25
2022-09-28T05:29:38.615Z,98751.06
2022-09-28T05:32:24.629Z,98757.09
2022-09-28T05:35:12.115Z,98757.09
2022-09-28T05:37:44.545Z,98750.25
2022-09-28T05:40:13.668Z,98740.50
2022-09-28T05:42:42.376Z,98737.69
2022-09-28T05:45:11.435Z,98745.53
2022-09-28T05:47:43.458Z,98743.56
2022-09-28T05:50:15.995Z,98749.53
2022-09-28T05:52:45.455Z,98753.28
2022-09-28T05:55:14.264Z,98743.25
2022-09-28T05:57:42.831Z,98753.75
2022-09-28T06:00:11.732Z,98756.06
2022-09-28T06:02:56.608Z,98762.34
2022-09-28T06:05:24.707Z,98757.66
2022-09-28T06:07:56.210Z,98766.88
2022-09-28T06:10:24.602Z,98767.88
2022-09-28T06:12:55.943Z,98769.59
2022-09-28T06:15:25.639Z,98761.72
2022-09-28T06:17:57.618Z,98774.88
2022-09-28T06:20:45.621Z,98772.34
2022-09-28T06:23:19.176Z,98776.41
2022-09-28T06:25:46.956Z,98774.75
2022-09-28T06:28:16.927Z,98785.09
2022-09-28T06:30:47.335Z,98783.16
2022-09-28T06:33:17.975Z,98780.84
2022-09-28T06:35:46.889Z,98793.06
2022-09-28T06:38:14.729Z,98786.94
2022-09-28T06:40:43.929Z,98795.03
2022-09-28T06:43:15.044Z,98801.16
2022-09-28T06:46:02.225Z,98797.34
2022-09-28T06:48:58.939Z,98797.16
2022-09-28T06:51:47.089Z,98802.56
2022-09-28T06:54:36.189Z,98801.28
2022-09-28T06:57:22.680Z,98798.00
2022-09-28T06:59:50.495Z,98814.28
2022-09-28T07:02:18.575Z,98820.03
2022-09-28T07:05:08.112Z,98811.97
2022-09-28T07:07:58.520Z,98823.50
2022-09-28T07:10:46.390Z,98826.78
2022-09-28T07:13:48.435Z,98822.78
2022-09-28T07:16:22.848Z,98830.69
2022-09-28T07:18:52.338Z,98834.13
2022-09-28T07:21:29.865Z,98834.94
2022-09-28T07:24:00.954Z,98837.91
2022-09-28T07:26:38.447Z,98832.97
2022-09-28T07:29:26.858Z,98835.53
2022-09-28T07:32:02.798Z,98844.09
2022-09-28T07:34:58.863Z,98843.25
2022-09-28T07:37:47.638Z,98845.25
2022-09-28T07:40:33.365Z,98849.63
2022-09-28T07:43:05.597Z,98854.56
2022-09-28T07:45:36.547Z,98858.00
2022-09-28T07:48:05.198Z,98849.94
2022-09-28T07:50:51.768Z,98858.13
2022-09-28T07:53:40.838Z,98862.59
2022-09-28T07:56:28.529Z,98864.75
2022-09-28T07:59:06.705Z,98866.03
2022-09-28T08:01:41.591Z,98873.50
2022-09-28T08:04:12.311Z,98876.56
2022-09-28T08:06:44.962Z,98874.66
2022-09-28T08:09:14.357Z,98874.31
2022-09-28T08:12:00.738Z,98875.63
2022-09-28T08:14:37.913Z,98877.09
2022-09-28T08:17:39.423Z,98879.91
2022-09-28T08:20:27.467Z,98876.56
2022-09-28T08:22:55.415Z,98874.53
2022-09-28T08:25:24.756Z,98883.78
2022-09-28T08:27:52.695Z,98890.84
2022-09-28T08:30:21.534Z,98888.59
2022-09-28T08:33:09.346Z,98893.09
2022-09-28T08:35:43.379Z,98895.94
2022-09-28T08:38:17.726Z,98889.34
2022-09-28T08:41:12.723Z,98899.19
2022-09-28T08:44:23.695Z,98896.00
2022-09-28T08:47:39.524Z,98901.34
2022-09-28T08:50:50.057Z,98903.25
2022-09-28T08:53:36.983Z,98904.09
2022-09-28T08:56:41.516Z,98908.22
2022-09-28T08:59:15.444Z,98906.72
2022-09-28T09:01:50.009Z,98907.25
2022-09-28T09:04:19.096Z,98910.66
2022-09-28T09:07:27.310Z,98919.22
2022-09-28T09:10:19.485Z,98927.63
2022-09-28T09:13:00.909Z,98923.28
2022-09-28T09:15:48.091Z,98926.38
2022-09-28T09:18:38.162Z,98930.66
2022-09-28T09:21:41.570Z,98928.28
2022-09-28T09:24:27.028Z,98924.34
2022-09-28T09:27:15.317Z,98931.75
2022-09-28T09:30:03.642Z,98929.84
2022-09-28T09:32:53.378Z,98932.75
2022-09-28T09:35:33.265Z,98938.94
2022-09-28T09:38:33.294Z,98939.50
2022-09-28T09:41:42.835Z,98939.38
2022-09-28T09:44:54.015Z,98932.44
2022-09-28T09:47:49.016Z,98942.25
2022-09-28T09:50:30.105Z,98944.19
2022-09-28T09:53:04.312Z,98945.47
2022-09-28T09:55:40.123Z,98947.47
2022-09-28T09:58:30.798Z,98945.00
2022-09-28T10:01:10.310Z,98952.22
2022-09-28T10:03:59.090Z,98951.59
2022-09-28T10:06:32.702Z,98955.69
2022-09-28T10:09:05.134Z,98963.56
2022-09-28T10:11:37.134Z,98943.53
2022-09-28T10:14:14.655Z,98956.19
2022-09-28T10:16:48.584Z,98952.91
2022-09-28T10:19:32.103Z,98950.56
2022-09-28T10:22:15.088Z,98938.25
2022-09-28T10:24:46.222Z,98924.72
2022-09-28T10:27:17.004Z,98955.50
2022-09-28T10:29:53.138Z,98954.50
2022-09-28T10:32:25.206Z,98954.31
2022-09-28T10:35:15.459Z,98947.19
2022-09-28T10:37:52.222Z,98959.25
2022-09-28T10:40:43.776Z,98947.72
2022-09-28T10:43:23.712Z,98954.56
2022-09-28T10:46:06.078Z,98965.09
2022-09-28T10:48:51.363Z,98976.13
2022-09-28T10:51:41.154Z,98964.44
2022-09-28T10:54:18.176Z,98969.09
2022-09-28T10:56:49.451Z,98965.72
2022-09-28T10:59:41.268Z,98972.47
2022-09-28T11:02:35.771Z,98961.63
2022-09-28T11:05:22.872Z,98965.31
2022-09-28T11:07:55.364Z,98962.66
2022-09-28T11:10:30.427Z,98966.75
2022-09-28T11:13:04.449Z,98969.78
2022-09-28T11:15:34.454Z,98962.53
2022-09-28T11:18:26.264Z,98950.03
2022-09-28T11:21:11.118Z,98970.78
2022-09-28T11:23:42.069Z,98951.56
2022-09-28T11:26:18.889Z,98966.94
2022-09-28T11:28:52.587Z,98970.59
2022-09-28T11:31:34.367Z,98965.66
2022-09-28T11:34:14.381Z,98956.72
2022-09-28T11:37:09.007Z,98970.50
2022-09-28T11:39:46.030Z,98969.63
2022-09-28T11:42:28.428Z,98967.94
2022-09-28T11:45:02.963Z,98966.78
2022-09-28T11:47:45.132Z,98963.00
2022-09-28T11:50:31.704Z,98976.59
2022-09-28T11:53:11.651Z,98975.06
2022-09-28T11:55:43.519Z,98974.22
2022-09-28T11:58:18.852Z,98925.31
2022-09-28T12:00:51.710Z,98969.28
2022-09-28T12:03:27.266Z,98972.94
2022-09-28T12:06:03.139Z,98970.13
2022-09-28T12:08:33.670Z,98972.22
2022-09-28T12:11:11.496Z,98972.03
2022-09-28T12:14:04.785Z,98976.94
2022-09-28T12:19:30.723Z,98971.53
2022-09-28T12:22:05.130Z,98963.38
2022-09-28T12:24:39.371Z,98973.75
2022-09-28T12:27:14.045Z,98978.22
2022-09-28T12:29:47.494Z,98978.13
2022-09-28T12:32:27.944Z,98965.53
2022-09-28T12:34:56.775Z,98978.91
2022-09-28T12:37:40.487Z,98948.81
2022-09-28T12:40:26.905Z,98969.56
2022-09-28T12:43:28.966Z,98961.22
2022-09-28T12:46:25.335Z,98965.78
2022-09-28T12:50:20.185Z,98971.63
2022-09-28T12:52:20.270Z,98957.00
2022-09-28T12:55:11.895Z,98944.69
2022-09-28T12:57:49.829Z,98958.72
2022-09-28T13:00:22.154Z,98965.41
2022-09-28T13:03:26.929Z,98967.97
2022-09-28T13:06:22.006Z,98959.38
2022-09-28T13:09:05.047Z,98968.38
2022-09-28T13:11:41.268Z,98959.84
2022-09-28T13:14:31.994Z,98960.66
2022-09-28T13:17:09.539Z,98959.09
2022-09-28T13:19:43.641Z,98958.09
2022-09-28T13:22:25.259Z,98955.66
2022-09-28T13:24:57.231Z,98961.97
2022-09-28T13:27:33.541Z,98945.56
2022-09-28T13:30:03.718Z,98946.34
2022-09-28T13:32:33.818Z,98958.78
2022-09-28T13:35:02.520Z,98965.63
2022-09-28T13:37:30.386Z,98930.97
2022-09-28T13:39:58.993Z,98965.75
2022-09-28T13:43:08.555Z,98958.19
2022-09-28T13:45:56.650Z,98959.66
2022-09-28T13:48:38.182Z,98963.50
2022-09-28T13:51:19.309Z,98949.47
2022-09-28T13:54:10.127Z,98956.13
2022-09-28T13:56:49.052Z,98954.91
2022-09-28T13:59:24.220Z,98946.72
2022-09-28T14:01:57.577Z,98952.16
2022-09-28T14:04:47.068Z,98964.56
2022-09-28T14:07:22.906Z,98959.97
2022-09-28T14:10:17.314Z,98954.59
2022-09-28T14:12:48.233Z,98956.41
2022-09-28T14:15:47.086Z,98950.50
2022-09-28T14:18:24.718Z,98958.03
2022-09-28T14:21:06.995Z,98952.63
2022-09-28T14:24:11.104Z,98937.72
2022-09-28T14:27:14.111Z,98949.34
2022-09-28T14:29:42.423Z,98959.72
2022-09-28T14:32:24.987Z,98952.97
2022-09-28T14:35:00.888Z,98950.81
2022-09-28T14:37:48.896Z,98957.31
2022-09-28T14:40:39.056Z,98965.63
2022-09-28T14:43:37.418Z,98959.34
2022-09-28T14:46:31.122Z,98969.94
2022-09-28T14:49:03.525Z,98966.28
2022-09-28T14:52:07.922Z,98965.91
2022-09-28T14:54:49.077Z,98967.16
2022-09-28T14:57:20.189Z,98962.16
2022-09-28T14:59:48.156Z,98963.34
2022-09-28T15:02:24.417Z,98984.94
2022-09-28T15:04:59.734Z,98994.91
2022-09-28T15:07:30.164Z,98992.38
2022-09-28T15:09:59.355Z,98995.47
2022-09-28T15:12:28.808Z,99000.22
2022-09-28T15:14:59.297Z,99003.47
2022-09-28T15:17:30.641Z,99003.47
2022-09-28T15:20:24.953Z,99002.81
2022-09-28T15:22:57.533Z,99006.19
2022-09-28T15:25:26.997Z,99000.97
2022-09-28T15:27:56.512Z,99001.72
2022-09-28T15:30:27.609Z,99004.94
2022-09-28T15:32:56.903Z,98971.59
2022-09-28T15:35:26.824Z,98977.03
2022-09-28T15:37:56.683Z,99002.16
2022-09-28T15:40:32.595Z,98994.19
2022-09-28T15:43:00.728Z,99000.31
2022-09-28T15:45:32.928Z,99003.97
2022-09-28T15:48:20.177Z,98992.50
2022-09-28T15:51:00.985Z,99011.47
2022-09-28T15:53:28.938Z,98998.78
2022-09-28T15:56:05.586Z,98998.97
2022-09-28T15:58:33.363Z,98993.59
2022-09-28T16:01:23.030Z,99001.66
2022-09-28T16:03:50.795Z,99009.31
2022-09-28T16:06:19.881Z,99013.97
2022-09-28T16:08:48.797Z,99005.75
2022-09-28T16:11:21.103Z,99015.97
2022-09-28T16:14:01.551Z,99019.81
2022-09-28T16:16:32.279Z,99022.66
2022-09-28T16:19:01.619Z,99028.78
2022-09-28T16:21:46.364Z,99044.28
2022-09-28T16:24:23.354Z,99048.31
2022-09-28T16:26:58.157Z,99038.34
2022-09-28T16:29:28.622Z,99042.44
2022-09-28T16:31:56.596Z,99034.50
2022-09-28T16:34:28.508Z,99046.81
2022-09-28T16:36:57.593Z,99050.72
2022-09-28T16:39:25.663Z,99050.06
2022-09-28T16:41:56.678Z,99047.56
2022-09-28T16:44:28.432Z,99054.38
2022-09-28T16:47:00.266Z,99056.66
2022-09-28T16:49:28.219Z,99056.44
2022-09-28T16:51:57.334Z,99065.94
2022-09-28T16:54:43.591Z,99061.66
2022-09-28T16:57:13.916Z,99068.69
2022-09-28T16:59:41.995Z,99066.03
2022-09-28T17:02:46.294Z,99063.38
2022-09-28T17:05:10.100Z,99073.59
2022-09-28T17:07:39.340Z,99072.13
2022-09-28T17:10:16.295Z,99075.97
2022-09-28T17:12:44.072Z,99073.66
2022-09-28T17:15:11.967Z,99075.00
2022-09-28T17:17:40.453Z,99080.28
2022-09-28T17:20:21.379Z,99069.41
2022-09-28T17:22:50.734Z,99073.69
2022-09-28T17:25:19.095Z,99074.06
2022-09-28T17:27:48.750Z,99077.53
2022-09-28T17:30:17.383Z,99077.34
2022-09-28T17:32:47.075Z,99083.19
2022-09-28T17:35:25.662Z,99084.19
2022-09-28T17:37:54.967Z,99084.03
2022-09-28T17:40:25.292Z,99085.69
2022-09-28T17:42:55.129Z,99088.69
2022-09-28T17:45:24.904Z,99064.81
2022-09-28T17:47:52.656Z,99085.59
2022-09-28T17:50:23.359Z,99091.69
2022-09-28T17:52:53.037Z,99087.56
2022-09-28T17:55:24.096Z,99100.78
2022-09-28T17:57:52.211Z,99096.97
2022-09-28T18:00:20.208Z,99097.00
2022-09-28T18:02:48.561Z,99094.38
2022-09-28T18:05:16.463Z,99100.13
2022-09-28T18:07:47.544Z,99096.34
2022-09-28T18:10:17.158Z,99095.06
2022-09-28T18:12:46.533Z,99092.22
2022-09-28T18:15:14.733Z,99101.34
2022-09-28T18:17:42.652Z,99101.03
2022-09-28T18:20:12.720Z,99104.03
2022-09-28T18:22:40.807Z,99103.38
2022-09-28T18:25:09.397Z,99100.44
2022-09-28T18:27:37.164Z,99107.72
2022-09-28T18:30:07.747Z,99105.91
2022-09-28T18:32:36.788Z,99110.69
2022-09-28T18:35:04.739Z,99111.34
2022-09-28T18:37:37.312Z,99113.34
2022-09-28T18:40:05.796Z,99111.19
2022-09-28T18:42:35.551Z,99086.47
2022-09-28T18:45:03.341Z,99108.72
2022-09-28T18:47:33.029Z,99110.09
2022-09-28T18:50:00.772Z,99117.66
2022-09-28T18:52:28.720Z,99122.75
2022-09-28T18:54:56.441Z,99131.84
2022-09-28T18:57:24.214Z,99122.63
2022-09-28T18:59:51.939Z,99131.72
2022-09-28T19:02:19.715Z,99122.31
2022-09-28T19:04:48.867Z,99129.25
2022-09-28T19:07:16.858Z,99134.53
2022-09-28T19:09:45.080Z,99122.66
2022-09-28T19:12:13.428Z,99128.59
2022-09-28T19:14:41.130Z,99118.72
2022-09-28T19:17:08.785Z,99127.94
2022-09-28T19:19:36.537Z,99122.47
2022-09-28T19:22:05.894Z,99129.91
2022-09-28T19:24:33.754Z,99122.97
2022-09-28T19:27:01.613Z,99126.94
2022-09-28T19:29:29.413Z,99134.19
2022-09-28T19:31:57.978Z,99136.31
2022-09-28T19:34:29.814Z,99132.50
2022-09-28T19:36:57.489Z,99135.50
2022-09-28T19:39:26.588Z,99135.97
2022-09-28T19:41:57.115Z,99142.25
2022-09-28T19:44:26.878Z,99149.34
2022-09-28T19:46:56.069Z,99139.16
2022-09-28T19:49:25.493Z,99143.44
2022-09-28T19:52:13.732Z,99151.38
2022-09-28T19:54:44.790Z,99142.28
2022-09-28T19:57:14.389Z,99151.88
2022-09-28T19:59:42.137Z,99156.16
2022-09-28T20:02:11.539Z,99162.28
2022-09-28T20:04:39.323Z,99155.50
2022-09-28T20:07:07.079Z,99160.63
2022-09-28T20:09:35.131Z,99162.59
2022-09-28T20:12:04.463Z,99168.22
2022-09-28T20:14:36.585Z,99162.44
2022-09-28T20:17:07.277Z,99169.22
2022-09-28T20:19:36.026Z,99161.28
2022-09-28T20:22:03.789Z,99168.91
2022-09-28T20:24:31.641Z,99169.22
2022-09-28T20:26:59.476Z,99163.09
2022-09-28T20:29:28.600Z,99157.66
2022-09-28T20:31:56.707Z,99166.91
2022-09-28T20:34:24.440Z,99174.50
2022-09-28T20:36:52.178Z,99170.84
2022-09-28T20:39:19.970Z,99170.84
2022-09-28T20:41:49.112Z,99166.56
2022-09-28T20:44:17.080Z,99169.69
2022-09-28T20:46:46.423Z,99169.03
2022-09-28T20:49:14.185Z,99170.84
2022-09-28T20:51:41.905Z,99165.25
2022-09-28T20:54:09.692Z,99165.56
2022-09-28T20:56:38.864Z,99162.78
2022-09-28T20:59:09.019Z,99165.59
2022-09-28T21:01:36.885Z,99166.25
2022-09-28T21:04:07.514Z,99167.06
2022-09-28T21:06:37.107Z,99171.50
2022-09-28T21:09:06.266Z,99174.81
2022-09-28T21:11:35.514Z,99168.22
2022-09-28T21:14:06.168Z,99167.88
2022-09-28T21:16:35.553Z,99170.84
2022-09-28T21:19:03.538Z,99171.84
2022-09-28T21:21:32.781Z,99157.50
2022-09-28T21:24:00.706Z,99168.88
2022-09-28T21:26:31.271Z,99172.19
2022-09-28T21:29:00.492Z,99175.66
2022-09-28T21:31:31.352Z,99169.22
2022-09-28T21:33:59.658Z,99171.19
2022-09-28T21:36:27.500Z,99165.56
2022-09-28T21:38:56.653Z,99167.22
2022-09-28T21:41:24.777Z,99175.97
2022-09-28T21:43:52.674Z,99167.56
2022-09-28T21:46:20.577Z,99175.16
2022-09-28T21:48:52.513Z,99168.72
2022-09-28T21:51:20.478Z,99179.59
2022-09-28T21:53:49.144Z,99172.50
2022-09-28T21:56:18.808Z,99176.84
2022-09-28T21:58:47.095Z,99162.59
2022-09-28T22:01:18.140Z,99171.03
2022-09-28T22:03:48.512Z,99176.13
2022-09-28T22:06:17.830Z,99166.91
2022-09-28T22:08:49.827Z,99167.22
2022-09-28T22:11:21.767Z,99169.22
2022-09-28T22:13:50.908Z,99170.84
2022-09-28T22:16:20.472Z,99171.56
2022-09-28T22:18:49.454Z,99168.91
2022-09-28T22:21:19.626Z,99169.88
2022-09-28T22:23:47.816Z,99160.63
2022-09-28T22:26:19.075Z,99172.19
2022-09-28T22:28:50.720Z,99164.25
2022-09-28T22:31:20.424Z,99172.84
2022-09-28T22:33:51.303Z,99169.38
2022-09-28T22:36:19.962Z,99181.09
2022-09-28T22:38:48.431Z,99174.50
2022-09-28T22:41:20.444Z,99174.19
2022-09-28T22:43:50.232Z,99173.16
2022-09-28T22:46:20.488Z,99180.94
2022-09-28T22:48:49.283Z,99178.44
2022-09-28T22:51:17.896Z,99179.47
2022-09-28T22:53:46.332Z,99173.66
2022-09-28T22:56:18.429Z,99187.41
2022-09-28T22:58:48.839Z,99186.72
2022-09-28T23:01:19.213Z,99189.34
2022-09-28T23:03:47.354Z,99194.63
2022-09-28T23:06:18.574Z,99191.66
2022-09-28T23:08:47.319Z,99190.84
2022-09-28T23:11:15.250Z,99184.56
2022-09-28T23:13:43.052Z,99184.75
2022-09-28T23:16:14.712Z,99192.00
2022-09-28T23:18:42.821Z,99183.06
2022-09-28T23:21:15.078Z,99184.75
2022-09-28T23:23:43.666Z,99187.53
2022-09-28T23:26:13.601Z,99178.66
2022-09-28T23:28:41.634Z,99181.44
2022-09-28T23:31:11.424Z,99178.13
2022-09-28T23:33:40.677Z,99161.59
2022-09-28T23:36:09.560Z,99184.88
2022-09-28T23:38:37.628Z,99177.97
2022-09-28T23:41:05.644Z,99185.88
2022-09-28T23:43:33.722Z,99174.31
2022-09-28T23:46:01.950Z,99182.09
2022-09-28T23:48:29.905Z,99177.63
2022-09-28T23:50:59.066Z,99186.03
2022-09-28T23:53:27.105Z,99187.88
2022-09-28T23:55:55.172Z,99183.91
2022-09-28T23:58:23.254Z,99172.53
